PILOTS ONLINE: 361    ATC ONLINE: 37

KLTS

Altus Air Force Base

Location

City Altus
Country  United States
Latitude 34° 40' 1" N
Longitude 99° 16' 0" W
Elevation 1382 ft
Type Large Airport

Map

Weather

METAR
2014/10/26 07:58
KLTS 260758Z AUTO 13004KT 10SM CLR 13/11 A2996 RMK AO2 SLP133 T01330109 $
TAF
2014/10/25 07:33
TAF TAF 
      AMD KLTS 2507/2607 20009KT 9999 FEW250 QNH2999INS 
      BECMG 2509/2510 19006KT 4800 BR SKC QNH3002INS 
      BECMG 2514/2515 25009KT 9999 NSW SKC QNH2996INS TX33/2521Z TN13/2512Z 
      AMD 250721 LAST NO 
      AMDS AFT 2507 NEXT 2709

Runways

17/35 3501 ft / 94 ft
174/354 3501 ft / 94 ft
17L/35R 9000 ft / 150 ft
17R/35L 13440 ft / 150 ft

Outbound flights

Callsign Flying to Pilot ATD/STD ETA Aircraft

Inbound flights

Callsign Flying from Pilot ATD ETA Aircraft